Time;durP1;ratioP1;P1;durP2;ratioP2;P2;SDS_P1;SDS_P2;PMS_P1;PMS_P2;Temp;Humidity;BMP_temperature;BMP_pressure;BME280_temperature;BME280_humidity;BME280_pressure;Samples;Min_cycle;Max_cycle;Signal;HPM_P1;HPM_P2
2021/12/02 00:00:34;;;;;;;3.22;0.95;;;;;;;3.91;100.00;99917.19;4991688;28;20042;-54
2021/12/02 00:03:03;;;;;;;5.82;1.08;;;;;;;3.84;100.00;99918.91;5031661;28;20040;-55
2021/12/02 00:05:28;;;;;;;4.10;1.17;;;;;;;3.79;100.00;99926.63;5024649;28;20021;-54
2021/12/02 00:07:54;;;;;;;2.20;1.17;;;;;;;3.76;100.00;99931.78;5013319;28;20056;-54
2021/12/02 00:10:26;;;;;;;1.10;0.85;;;;;;;3.74;100.00;99925.72;5013586;28;20484;-56
2021/12/02 00:12:53;;;;;;;3.53;0.90;;;;;;;3.71;100.00;99933.47;5017108;28;20053;-57
2021/12/02 00:15:23;;;;;;;8.52;1.55;;;;;;;3.69;100.00;99930.03;5030785;28;20093;-57
2021/12/02 00:17:54;;;;;;;2.55;1.15;;;;;;;3.65;100.00;99933.47;5029113;28;20491;-56
2021/12/02 00:23:29;;;;;;;4.45;1.17;;;;;;;3.57;100.00;99940.31;5023674;28;20088;-53
2021/12/02 00:25:58;;;;;;;;;;;;;;;3.57;100.00;99945.47;5025983;28;20033;-57
2021/12/02 00:28:29;;;;;;;7.22;1.73;;;;;;;3.56;100.00;99948.91;5021451;28;19964;-54
2021/12/02 00:30:56;;;;;;;8.73;2.33;;;;;;;3.52;100.00;99952.31;5024775;28;20040;-56
2021/12/02 00:33:25;;;;;;;3.17;1.70;;;;;;;3.53;100.00;99953.19;5022012;28;20042;-57
2021/12/02 00:35:51;;;;;;;9.23;1.80;;;;;;;3.50;100.00;99941.13;5016788;28;20121;-57
2021/12/02 00:38:21;;;;;;;4.28;1.70;;;;;;;3.49;100.00;99952.31;5016929;28;20063;-58
2021/12/02 00:40:47;;;;;;;10.02;1.83;;;;;;;3.47;100.00;99955.72;5030500;28;20018;-57
2021/12/02 00:43:13;;;;;;;7.40;1.40;;;;;;;3.46;100.00;99956.59;5015265;28;20030;-57
2021/12/02 00:45:40;;;;;;;8.77;1.88;;;;;;;3.47;100.00;99946.25;5030265;28;20037;-58
2021/12/02 00:48:08;;;;;;;4.72;1.15;;;;;;;3.49;100.00;99947.16;5016649;28;20041;-56
2021/12/02 00:50:34;;;;;;;3.85;1.77;;;;;;;3.52;100.00;99947.16;5016281;28;20025;-56
2021/12/02 00:53:01;;;;;;;9.73;2.13;;;;;;;3.49;100.00;99941.97;5016402;28;20061;-53
2021/12/02 00:55:27;;;;;;;9.00;1.95;;;;;;;3.47;100.00;99953.13;5016325;28;20022;-56
2021/12/02 00:57:53;;;;;;;5.85;1.77;;;;;;;3.40;100.00;99941.91;5016314;28;20049;-54
2021/12/02 01:00:19;;;;;;;2.25;1.15;;;;;;;3.43;100.00;99949.66;5028323;28;20026;-55
2021/12/02 01:02:48;;;;;;;3.97;1.35;;;;;;;3.43;100.00;99947.09;5021898;28;20026;-57
2021/12/02 01:05:14;;;;;;;3.80;1.50;;;;;;;3.46;100.00;99939.38;5031932;28;20033;-57
2021/12/02 01:07:41;;;;;;;7.38;1.98;;;;;;;3.43;100.00;99947.09;5023546;28;20076;-55
2021/12/02 01:10:08;;;;;;;3.28;1.65;;;;;;;3.36;100.00;99937.59;5020527;28;20116;-57
2021/12/02 01:12:37;;;;;;;8.38;1.40;;;;;;;3.38;100.00;99948.81;5025226;28;20018;-57
2021/12/02 01:15:05;;;;;;;2.33;0.98;;;;;;;3.42;100.00;99955.72;5033102;28;20083;-57
2021/12/02 01:17:31;;;;;;;6.70;1.65;;;;;;;3.46;100.00;99941.97;5035758;28;20033;-57
2021/12/02 01:19:56;;;;;;;6.57;1.38;;;;;;;3.72;100.00;99966.22;5019987;28;20350;-57
2021/12/02 01:22:24;;;;;;;7.80;1.35;;;;;;;3.82;100.00;99961.09;5021395;28;20058;-57
2021/12/02 01:24:52;;;;;;;3.03;0.90;;;;;;;3.79;100.00;99957.63;5033574;28;20045;-57
2021/12/02 01:27:21;;;;;;;2.63;0.93;;;;;;;3.84;100.00;99959.38;5035505;28;20067;-57
2021/12/02 01:29:48;;;;;;;4.72;1.27;;;;;;;3.92;100.00;99958.56;5035380;28;20113;-55
2021/12/02 01:32:15;;;;;;;5.00;1.48;;;;;;;3.94;100.00;99959.41;5035365;28;20050;-57
2021/12/02 01:34:45;;;;;;;5.72;1.30;;;;;;;3.90;100.00;99954.25;5035220;28;20108;-57
2021/12/02 01:37:11;;;;;;;11.82;2.10;;;;;;;3.89;100.00;99958.56;5035454;28;20056;-57
2021/12/02 01:39:37;;;;;;;5.72;1.58;;;;;;;3.88;100.00;99958.53;5034909;28;20047;-56
2021/12/02 01:42:02;;;;;;;6.78;1.95;;;;;;;3.86;100.00;99952.50;5035250;28;20021;-57
2021/12/02 01:44:29;;;;;;;5.82;0.80;;;;;;;3.85;100.00;99950.78;5035030;28;20034;-57
2021/12/02 01:47:00;;;;;;;5.45;1.42;;;;;;;3.86;100.00;99957.69;5035161;28;20392;-57
2021/12/02 01:49:30;;;;;;;6.10;1.40;;;;;;;3.88;100.00;99958.53;5034903;28;20053;-57
2021/12/02 01:51:55;;;;;;;3.30;1.00;;;;;;;3.86;100.00;99958.53;5035166;28;20472;-57
2021/12/02 01:54:26;;;;;;;2.78;1.40;;;;;;;3.88;100.00;99967.16;5035014;28;20256;-55
2021/12/02 01:57:07;;;;;;;5.20;1.10;;;;;;;3.93;100.00;99965.47;5034635;28;20018;-56
2021/12/02 01:59:35;;;;;;;5.35;0.95;;;;;;;3.96;100.00;99977.53;5034834;28;20461;-56
2021/12/02 02:02:04;;;;;;;8.95;1.40;;;;;;;3.96;100.00;99969.75;5034714;28;20029;-56
2021/12/02 02:04:29;;;;;;;4.95;1.33;;;;;;;3.93;100.00;99964.59;5034918;28;20041;-57
2021/12/02 02:07:05;;;;;;;8.32;1.33;;;;;;;3.89;100.00;99968.88;5034489;28;20029;-57
2021/12/02 02:09:33;;;;;;;3.78;1.75;;;;;;;3.88;100.00;99966.28;5034836;28;20033;-56
2021/12/02 02:12:04;;;;;;;0.93;0.85;;;;;;;3.84;100.00;99959.38;5034320;28;20384;-56
2021/12/02 02:14:30;;;;;;;1.75;0.98;;;;;;;3.75;100.00;99961.06;5034700;28;20053;-57
2021/12/02 02:16:58;;;;;;;6.97;1.40;;;;;;;3.74;100.00;99955.91;5034406;28;20021;-57
2021/12/02 02:19:28;;;;;;;3.63;0.90;;;;;;;3.69;100.00;99955.00;5034670;28;20061;-58
2021/12/02 02:21:54;;;;;;;2.60;0.77;;;;;;;3.70;100.00;99967.91;5034451;28;20032;-57
2021/12/02 02:24:19;;;;;;;9.25;1.60;;;;;;;3.70;100.00;99967.91;5034503;28;20021;-57
2021/12/02 02:26:45;;;;;;;4.68;1.15;;;;;;;3.70;100.00;99962.75;5034519;28;20021;-57
2021/12/02 02:29:13;;;;;;;1.90;0.70;;;;;;;3.67;100.00;99967.03;5034119;28;20032;-57
2021/12/02 02:31:41;;;;;;;2.35;1.38;;;;;;;3.71;100.00;99972.22;5034207;28;20029;-56
2021/12/02 02:34:08;;;;;;;5.47;1.00;;;;;;;3.75;100.00;99980.84;5033704;28;20075;-57
2021/12/02 02:36:37;;;;;;;4.63;1.00;;;;;;;3.78;100.00;99984.31;5034279;28;20029;-58
2021/12/02 02:39:04;;;;;;;3.47;1.50;;;;;;;3.78;100.00;99981.72;5032883;28;20179;-57
2021/12/02 02:41:35;;;;;;;4.47;1.65;;;;;;;3.79;100.00;99983.47;5034195;28;20021;-56
2021/12/02 02:44:04;;;;;;;4.63;1.50;;;;;;;3.77;100.00;99974.84;5033851;28;20025;-57
2021/12/02 02:46:33;;;;;;;7.45;1.63;;;;;;;3.82;100.00;99981.78;5034168;28;20052;-56
2021/12/02 02:49:00;;;;;;;6.88;1.27;;;;;;;3.86;100.00;99957.69;5034207;28;20431;-57
2021/12/02 02:51:26;;;;;;;7.18;1.40;;;;;;;3.83;100.00;99962.81;5034021;28;20013;-57
2021/12/02 02:53:56;;;;;;;6.57;2.10;;;;;;;3.97;100.00;99966.34;5034143;28;20030;-57
2021/12/02 02:56:25;;;;;;;4.28;1.45;;;;;;;4.02;100.00;99965.47;5033861;28;20022;-56
2021/12/02 03:06:58;;;;;;;5.38;1.25;;;;;;;4.08;100.00;100011.19;5033702;28;20049;-55
2021/12/02 03:11:59;;;;;;;6.70;1.33;;;;;;;4.20;100.00;100037.09;5033497;28;20497;-57
2021/12/02 03:17:16;;;;;;;7.47;1.20;;;;;;;3.92;100.00;99999.03;4953668;29;20043;-57
2021/12/02 03:19:44;;;;;;;4.13;1.50;;;;;;;3.69;100.00;100017.88;4953528;29;20039;-57
2021/12/02 03:22:10;;;;;;;8.52;1.40;;;;;;;3.47;100.00;100018.56;4993098;28;20104;-57
2021/12/02 03:24:36;;;;;;;4.03;1.75;;;;;;;3.36;100.00;100002.13;5033698;28;20112;-56
2021/12/02 03:27:02;;;;;;;3.47;1.70;;;;;;;3.36;100.00;100009.00;5033663;28;20060;-57
2021/12/02 03:29:28;;;;;;;6.50;1.60;;;;;;;3.33;100.00;100007.28;5033607;28;20057;-56
2021/12/02 03:31:54;;;;;;;3.03;1.30;;;;;;;3.29;100.00;100010.69;5033129;28;20057;-57
2021/12/02 03:34:19;;;;;;;3.40;1.40;;;;;;;3.24;100.00;99996.88;5033379;28;20544;-57
2021/12/02 03:36:50;;;;;;;7.25;2.05;;;;;;;3.24;100.00;100002.03;5033571;28;20388;-54
2021/12/02 03:39:16;;;;;;;2.85;1.65;;;;;;;3.21;100.00;100008.06;5033438;28;20026;-57
2021/12/02 03:41:41;;;;;;;5.47;1.50;;;;;;;3.22;100.00;99993.44;5033492;28;20022;-57
2021/12/02 03:44:07;;;;;;;6.78;1.40;;;;;;;3.17;100.00;99998.56;5033207;28;20469;-57
2021/12/02 03:46:33;;;;;;;8.00;1.98;;;;;;;3.17;100.00;100005.44;5035575;28;20037;-57
2021/12/02 03:48:59;;;;;;;10.00;1.80;;;;;;;3.24;100.00;100015.81;5037415;28;20490;-56
2021/12/02 03:51:25;;;;;;;4.07;1.33;;;;;;;3.25;100.00;100011.53;5040689;28;20024;-55
2021/12/02 03:53:51;;;;;;;2.45;1.13;;;;;;;3.24;100.00;100004.63;5037644;28;20376;-54
2021/12/02 03:56:17;;;;;;;7.38;1.65;;;;;;;3.27;100.00;100002.94;5037421;28;20021;-54
2021/12/02 03:58:44;;;;;;;6.10;2.05;;;;;;;3.29;100.00;99995.22;5037583;28;20029;-56
2021/12/02 04:01:10;;;;;;;9.55;1.45;;;;;;;3.25;100.00;99983.13;5037032;28;20120;-55
2021/12/02 04:03:36;;;;;;;3.25;1.40;;;;;;;3.28;100.00;99989.19;5037254;28;20024;-56
2021/12/02 04:06:02;;;;;;;5.05;1.13;;;;;;;3.30;100.00;99996.94;5037261;28;20032;-53
2021/12/02 04:08:31;;;;;;;8.10;1.27;;;;;;;3.34;100.00;99998.69;5036804;28;20069;-53
2021/12/02 04:16:51;;;;;;;7.13;1.10;;;;;;;3.22;100.00;99989.16;5006196;28;20036;-56
2021/12/02 04:19:16;;;;;;;5.80;1.60;;;;;;;3.27;100.00;99991.72;5036956;28;20017;-56
2021/12/02 04:21:41;;;;;;;13.95;1.40;;;;;;;3.24;100.00;99976.22;5036732;28;20033;-53
2021/12/02 04:24:07;;;;;;;6.10;1.08;;;;;;;3.26;100.00;99987.44;5036690;28;20081;-56
2021/12/02 04:26:32;;;;;;;6.20;1.13;;;;;;;3.25;100.00;99989.16;5036488;28;20032;-54
2021/12/02 04:28:57;;;;;;;7.57;1.92;;;;;;;3.27;100.00;99989.16;5036748;28;20025;-54
2021/12/02 04:31:23;;;;;;;3.72;1.55;;;;;;;3.31;100.00;99989.19;5036477;28;20017;-56
2021/12/02 04:33:48;;;;;;;4.00;1.17;;;;;;;3.39;100.00;99998.69;5036305;28;20045;-57
2021/12/02 04:36:13;;;;;;;5.68;1.60;;;;;;;3.45;100.00;100007.38;5036678;28;20079;-53
2021/12/02 04:38:39;;;;;;;10.68;1.92;;;;;;;3.53;100.00;100000.53;5036455;28;20100;-54
2021/12/02 04:41:04;;;;;;;7.35;1.77;;;;;;;3.59;100.00;99990.25;5036198;28;20022;-55
2021/12/02 04:43:30;;;;;;;7.55;2.05;;;;;;;3.62;100.00;100000.56;5036291;28;20507;-53
2021/12/02 04:45:55;;;;;;;5.82;1.73;;;;;;;3.66;100.00;99988.56;5036276;28;20033;-55
2021/12/02 04:48:21;;;;;;;10.38;2.20;;;;;;;3.59;100.00;99979.03;5036510;28;20029;-57
2021/12/02 04:50:47;;;;;;;4.35;1.38;;;;;;;3.63;100.00;100004.91;5036130;28;20029;-55
2021/12/02 04:53:12;;;;;;;9.95;1.88;;;;;;;3.67;100.00;99998.91;5036262;28;20071;-57
2021/12/02 04:55:39;;;;;;;4.38;1.50;;;;;;;3.69;100.00;99992.03;5036234;28;20029;-55
2021/12/02 04:58:05;;;;;;;2.58;1.50;;;;;;;3.75;100.00;100011.84;5035729;28;20083;-57
2021/12/02 05:00:30;;;;;;;5.10;1.45;;;;;;;3.77;100.00;100000.69;5036082;28;20415;-54
2021/12/02 05:02:56;;;;;;;1.45;1.20;;;;;;;3.78;100.00;100012.72;5035754;28;20040;-57
2021/12/02 05:05:23;;;;;;;7.28;1.23;;;;;;;3.80;100.00;99999.84;5035993;28;20460;-56
2021/12/02 05:07:52;;;;;;;1.48;1.15;;;;;;;3.82;100.00;100012.78;5035910;28;20025;-57
2021/12/02 05:10:18;;;;;;;6.95;1.90;;;;;;;3.83;100.00;100006.72;5036001;28;20024;-56
2021/12/02 05:12:43;;;;;;;11.95;2.00;;;;;;;3.79;100.00;100017.06;5035921;28;20021;-53
2021/12/02 05:15:08;;;;;;;1.48;0.75;;;;;;;3.77;100.00;100017.91;5035802;28;20026;-55
2021/12/02 05:17:34;;;;;;;3.78;1.67;;;;;;;3.76;100.00;100019.63;5035756;28;20423;-54
2021/12/02 05:19:59;;;;;;;2.22;1.20;;;;;;;3.79;100.00;100018.78;5035551;28;20056;-54
2021/12/02 05:22:24;;;;;;;2.85;1.10;;;;;;;3.75;100.00;100028.22;5035596;28;20042;-56
2021/12/02 05:24:50;;;;;;;3.53;1.10;;;;;;;3.70;100.00;100019.56;5035777;28;20108;-57
2021/12/02 05:27:18;;;;;;;3.50;0.70;;;;;;;3.65;100.00;100015.25;5035735;28;20052;-57
2021/12/02 05:29:44;;;;;;;3.40;1.10;;;;;;;3.63;100.00;100010.06;5035651;28;20510;-57
2021/12/02 05:32:09;;;;;;;2.70;1.08;;;;;;;3.61;100.00;100019.53;5034795;28;20049;-56
2021/12/02 05:34:34;;;;;;;2.30;0.90;;;;;;;3.53;100.00;100018.63;5035526;28;20040;-57
2021/12/02 05:37:00;;;;;;;1.33;0.60;;;;;;;3.48;100.00;100025.47;5035584;28;20439;-56
2021/12/02 05:39:25;;;;;;;2.97;0.98;;;;;;;3.42;100.00;100028.03;5035140;28;20025;-56
2021/12/02 05:41:53;;;;;;;1.13;0.47;;;;;;;3.37;100.00;100024.53;5035447;28;20480;-57
2021/12/02 05:44:20;;;;;;;0.68;0.40;;;;;;;3.38;100.00;100021.09;5034011;28;20388;-57
2021/12/02 05:46:45;;;;;;;0.95;0.50;;;;;;;3.38;100.00;100021.09;5035305;28;20112;-57
2021/12/02 05:49:11;;;;;;;1.38;0.50;;;;;;;3.36;100.00;100027.97;5035027;28;20538;-57
2021/12/02 05:51:36;;;;;;;1.17;0.73;;;;;;;3.32;100.00;100026.19;5035193;28;20049;-57
2021/12/02 05:54:02;;;;;;;1.25;0.47;;;;;;;3.35;100.00;100031.38;5035288;28;20496;-57
2021/12/02 05:56:27;;;;;;;2.13;0.90;;;;;;;3.28;100.00;100039.94;5034763;28;20104;-57
2021/12/02 05:58:52;;;;;;;2.38;1.00;;;;;;;3.35;100.00;100031.38;5034986;28;20029;-56
2021/12/02 06:01:18;;;;;;;5.55;1.35;;;;;;;3.36;100.00;100038.28;5034888;28;20033;-57
2021/12/02 06:03:43;;;;;;;10.25;1.02;;;;;;;3.31;100.00;100039.97;5034928;28;20522;-57
2021/12/02 06:06:08;;;;;;;3.22;1.50;;;;;;;3.30;100.00;100043.41;5034674;28;20171;-55
2021/12/02 06:08:36;;;;;;;3.78;1.00;;;;;;;3.30;100.00;100043.41;5034183;28;20119;-57
2021/12/02 06:11:01;;;;;;;2.08;1.20;;;;;;;3.24;100.00;100043.34;5034787;28;20131;-57
2021/12/02 06:13:26;;;;;;;8.30;1.55;;;;;;;3.27;100.00;100058.84;5034353;28;20125;-57
2021/12/02 06:15:52;;;;;;;1.38;0.90;;;;;;;3.28;100.00;100060.59;5034664;28;20021;-57
2021/12/02 06:18:17;;;;;;;5.85;1.15;;;;;;;3.44;100.00;100051.25;5034522;28;20049;-57
2021/12/02 06:20:44;;;;;;;2.33;1.20;;;;;;;3.52;100.00;100060.78;5041665;28;20524;-57
2021/12/02 06:23:09;;;;;;;2.85;0.85;;;;;;;3.44;100.00;100044.38;5029099;28;20033;-57
2021/12/02 06:28:03;;;;;;;1.08;0.45;;;;;;;3.39;100.00;100058.09;5028226;28;20028;-57
2021/12/02 06:30:31;;;;;;;0.65;0.65;;;;;;;3.34;100.00;100059.78;5034156;28;20025;-62
2021/12/02 06:32:57;;;;;;;0.65;0.43;;;;;;;3.28;100.00;100056.31;5031326;28;20048;-60
2021/12/02 06:35:22;;;;;;;1.17;1.05;;;;;;;3.26;100.00;100068.31;5031828;28;20021;-61
2021/12/02 06:37:48;;;;;;;0.80;0.43;;;;;;;3.26;100.00;100067.47;5029862;28;20038;-61
2021/12/02 06:40:14;;;;;;;2.80;1.08;;;;;;;3.26;100.00;100057.16;5027076;28;20025;-61
2021/12/02 06:42:41;;;;;;;1.23;0.68;;;;;;;3.22;100.00;100069.16;5029426;28;20061;-61
2021/12/02 06:45:11;;;;;;;8.52;1.15;;;;;;;3.28;100.00;100095.03;5028682;28;20033;-61
2021/12/02 06:47:40;;;;;;;2.08;1.17;;;;;;;3.34;100.00;100101.09;5024925;28;20029;-62
2021/12/02 06:50:17;;;;;;;1.38;0.80;;;;;;;3.12;100.00;100131.00;5024398;28;20037;-58
2021/12/02 06:52:43;;;;;;;1.38;1.08;;;;;;;2.73;100.00;100121.09;5022600;28;20032;-62
2021/12/02 06:55:10;;;;;;;1.10;0.70;;;;;;;2.58;100.00;100111.50;5015663;28;20029;-61
2021/12/02 06:57:35;;;;;;;0.95;0.80;;;;;;;2.46;100.00;100116.50;5014093;28;20075;-61
2021/12/02 07:00:07;;;;;;;0.77;0.60;;;;;;;2.38;100.00;100112.09;5014937;28;20033;-61
2021/12/02 07:02:33;;;;;;;3.00;0.98;;;;;;;2.33;100.00;100133.50;5004280;28;20555;-57
2021/12/02 07:04:58;;;;;;;1.05;0.95;;;;;;;2.27;100.00;100133.41;4989704;28;20034;-60
2021/12/02 07:07:24;;;;;;;1.25;0.80;;;;;;;2.25;100.00;100131.66;4993949;28;20129;-59
2021/12/02 07:09:49;;;;;;;1.55;1.02;;;;;;;2.22;100.00;100126.47;4978162;28;20283;-60
2021/12/02 07:12:17;;;;;;;1.58;0.80;;;;;;;2.19;100.00;100110.97;4968118;28;20116;-59
2021/12/02 07:14:46;;;;;;;0.95;0.43;;;;;;;2.16;100.00;100106.63;4936409;28;20128;-60
2021/12/02 07:17:11;;;;;;;3.20;0.77;;;;;;;2.16;100.00;100116.06;4918468;28;20289;-60
2021/12/02 07:19:39;;;;;;;2.42;1.35;;;;;;;2.19;100.00;100121.28;4875795;28;20052;-60
2021/12/02 07:22:05;;;;;;;2.13;1.00;;;;;;;2.24;100.00;100129.94;4795111;28;20048;-59
2021/12/02 07:24:30;;;;;;;7.28;1.85;;;;;;;2.25;100.00;100142.84;4754163;28;20037;-60
2021/12/02 07:26:57;;;;;;;2.47;1.27;;;;;;;2.29;100.00;100154.06;4697144;28;21447;-60
2021/12/02 07:29:22;;;;;;;1.00;0.65;;;;;;;2.36;100.00;100143.84;4668574;28;20033;-58
2021/12/02 07:31:50;;;;;;;1.60;0.70;;;;;;;2.40;100.00;100149.03;4605255;28;20083;-61
2021/12/02 07:34:17;;;;;;;1.13;0.70;;;;;;;2.40;100.00;100147.34;4702416;28;20622;-59
2021/12/02 07:36:44;;;;;;;1.90;1.05;;;;;;;2.39;100.00;100150.75;4751401;28;20190;-60
2021/12/02 07:39:10;;;;;;;3.53;1.38;;;;;;;2.31;100.00;100142.03;4670611;28;20036;-59
2021/12/02 07:41:39;;;;;;;1.23;1.13;;;;;;;2.24;100.00;100166.00;4715314;28;20142;-60
2021/12/02 07:44:05;;;;;;;1.77;1.15;;;;;;;2.07;100.00;100105.66;4723467;28;20164;-61
2021/12/02 07:46:31;;;;;;;0.55;0.50;;;;;;;2.13;100.00;100126.34;4762954;28;22280;-60
2021/12/02 07:48:57;;;;;;;13.70;1.85;;;;;;;2.10;100.00;100116.00;4777054;28;20041;-59
2021/12/02 07:51:29;;;;;;;5.60;1.00;;;;;;;2.03;100.00;100140.78;4782136;28;21560;-56
2021/12/02 07:53:55;;;;;;;2.35;1.13;;;;;;;1.92;100.00;100141.47;4749491;28;20115;-59
2021/12/02 07:56:22;;;;;;;1.52;1.00;;;;;;;1.88;100.00;100136.28;4724977;28;21499;-58
2021/12/02 07:58:49;;;;;;;5.50;2.13;;;;;;;1.88;100.00;100141.44;4714462;28;22110;-59
2021/12/02 08:01:16;;;;;;;3.30;1.27;;;;;;;2.02;100.00;100138.22;4699881;28;20554;-56
2021/12/02 08:03:45;;;;;;;1.60;0.70;;;;;;;2.18;100.00;100142.75;4668028;28;20714;-58
2021/12/02 08:06:15;;;;;;;2.75;1.48;;;;;;;2.15;100.00;100132.41;4648175;28;20588;-60
2021/12/02 08:08:42;;;;;;;1.55;1.10;;;;;;;2.28;100.00;100147.16;4635107;28;20041;-59
2021/12/02 08:11:09;;;;;;;3.38;1.35;;;;;;;2.31;100.00;100136.88;4594449;28;21926;-61
2021/12/02 08:13:35;;;;;;;2.20;1.30;;;;;;;2.35;100.00;100136.09;4568698;28;20030;-58
2021/12/02 08:16:02;;;;;;;4.30;1.95;;;;;;;2.35;100.00;100143.81;4580228;28;20856;-61
2021/12/02 08:18:28;;;;;;;8.88;1.38;;;;;;;2.32;100.00;100143.78;4573277;28;20119;-61
2021/12/02 08:20:54;;;;;;;2.67;1.40;;;;;;;2.39;100.00;100153.31;4603144;28;22996;-60
2021/12/02 08:23:22;;;;;;;2.13;1.27;;;;;;;2.42;100.00;100161.13;4636240;28;20036;-60
2021/12/02 08:25:47;;;;;;;4.68;2.10;;;;;;;2.45;100.00;100191.22;4551288;28;21436;-61
2021/12/02 08:28:13;;;;;;;1.85;1.05;;;;;;;2.32;100.00;100192.75;4449366;28;21753;-61
2021/12/02 08:30:39;;;;;;;2.83;1.38;;;;;;;2.26;100.00;100200.44;4540776;28;20347;-60
2021/12/02 08:33:07;;;;;;;4.47;1.17;;;;;;;2.28;100.00;100201.28;4527207;28;20049;-63
2021/12/02 08:35:34;;;;;;;3.15;1.38;;;;;;;2.23;100.00;100177.19;4699145;28;20691;-56
2021/12/02 08:38:03;;;;;;;3.83;1.75;;;;;;;2.35;100.00;100185.06;4684338;28;21483;-60
2021/12/02 08:40:31;;;;;;;9.70;1.77;;;;;;;2.34;100.00;100189.38;4571698;28;23771;-60
2021/12/02 08:42:57;;;;;;;2.45;1.30;;;;;;;2.34;100.00;100188.50;4569363;28;20401;-58
2021/12/02 08:45:23;;;;;;;1.40;1.00;;;;;;;2.33;100.00;100197.09;4583150;28;21366;-58
2021/12/02 08:47:49;;;;;;;6.03;0.93;;;;;;;2.36;100.00;100207.44;4659896;28;23309;-59
2021/12/02 08:50:17;;;;;;;2.55;1.38;;;;;;;2.35;100.00;100210.84;4692703;28;20029;-60
2021/12/02 08:52:44;;;;;;;3.92;1.00;;;;;;;2.36;100.00;100212.59;4622934;28;21009;-60
2021/12/02 08:55:12;;;;;;;4.80;0.95;;;;;;;2.39;100.00;100212.63;4615942;28;21419;-58
2021/12/02 08:57:40;;;;;;;3.45;1.58;;;;;;;2.53;100.00;100221.44;4609061;28;21125;-60
2021/12/02 09:00:08;;;;;;;12.48;2.00;;;;;;;2.64;100.00;100217.28;4562562;28;20779;-60
2021/12/02 09:02:33;;;;;;;6.97;1.38;;;;;;;2.65;100.00;100208.72;4533427;28;22932;-56
2021/12/02 09:04:59;;;;;;;1.75;1.15;;;;;;;2.84;100.00;100228.75;4519544;28;20123;-59
2021/12/02 09:07:25;;;;;;;11.15;1.55;;;;;;;2.98;100.00;100223.75;4558993;28;20909;-59
2021/12/02 09:09:50;;;;;;;2.63;1.38;;;;;;;3.07;100.00;100236.75;4631663;28;20033;-61
2021/12/02 09:12:16;;;;;;;5.68;1.85;;;;;;;3.10;100.00;100228.22;4539725;28;21463;-60
2021/12/02 09:14:42;;;;;;;3.05;1.48;;;;;;;3.17;100.00;100237.75;4544611;28;23053;-60
2021/12/02 09:17:07;;;;;;;2.05;1.40;;;;;;;3.12;100.00;100236.81;4598859;28;20735;-60
2021/12/02 09:19:32;;;;;;;9.38;1.83;;;;;;;3.12;100.00;100239.41;4630012;28;20306;-60
2021/12/02 09:21:58;;;;;;;11.57;2.05;;;;;;;3.14;100.00;100253.22;4597098;28;20152;-60
2021/12/02 09:24:24;;;;;;;8.38;2.30;;;;;;;3.17;100.00;100248.06;4626687;28;22262;-60
2021/12/02 09:26:52;;;;;;;10.40;1.77;;;;;;;3.26;100.00;100253.34;4596391;28;22040;-57
2021/12/02 09:29:18;;;;;;;4.30;1.67;;;;;;;3.38;100.00;100252.63;4589260;28;20033;-60
2021/12/02 09:31:45;;;;;;;2.20;1.20;;;;;;;3.38;100.00;100238.00;4430581;28;21345;-60
2021/12/02 09:34:14;;;;;;;8.90;2.50;;;;;;;3.64;100.00;100261.50;4541148;22;22333;-61
2021/12/02 09:36:41;;;;;;;9.15;1.85;;;;;;;3.73;100.00;100252.16;4644401;28;20026;-59
2021/12/02 09:39:08;;;;;;;4.68;1.80;;;;;;;3.79;100.00;100247.03;4538354;28;20030;-61
2021/12/02 09:41:36;;;;;;;8.93;1.65;;;;;;;3.83;100.00;100252.22;4642156;28;21492;-60
2021/12/02 09:44:02;;;;;;;7.35;2.08;;;;;;;3.75;100.00;100250.41;4632751;28;20042;-60
2021/12/02 09:46:27;;;;;;;5.10;1.83;;;;;;;3.73;100.00;100262.47;4656052;28;22532;-61
2021/12/02 09:48:56;;;;;;;6.47;1.75;;;;;;;3.54;100.00;100239.91;4631987;28;23280;-61
2021/12/02 09:51:28;;;;;;;12.80;2.15;;;;;;;3.62;100.00;100258.91;4618045;28;21202;-60
2021/12/02 09:54:39;;;;;;;5.18;1.58;;;;;;;3.60;100.00;100268.34;4573756;28;21008;-60
2021/12/02 09:56:45;;;;;;;9.02;1.70;;;;;;;3.55;100.00;100272.59;4616488;28;20521;-61
2021/12/02 09:59:25;;;;;;;1.95;1.00;;;;;;;3.55;100.00;100272.59;4604958;28;20677;-60
2021/12/02 10:01:58;;;;;;;3.15;1.17;;;;;;;3.48;100.00;100286.31;4636782;28;21838;-60
2021/12/02 10:04:25;;;;;;;5.47;1.13;;;;;;;3.36;100.00;100290.47;4604910;28;21640;-61
2021/12/02 10:07:09;;;;;;;3.17;0.95;;;;;;;3.25;100.00;100292.91;4639762;28;22510;-59
2021/12/02 10:09:52;;;;;;;3.58;1.17;;;;;;;3.01;100.00;100287.44;4601100;28;20029;-61
2021/12/02 10:12:20;;;;;;;6.32;1.15;;;;;;;2.91;100.00;100306.25;4658796;28;20041;-59
2021/12/02 10:14:53;;;;;;;1.92;0.68;;;;;;;2.87;100.00;100307.03;4592881;28;22251;-62
2021/12/02 10:23:01;;;;;;;5.20;0.82;;;;;;;2.55;100.00;100307.41;4445640;28;21700;-57
2021/12/02 10:25:34;;;;;;;2.78;0.80;;;;;;;2.48;100.00;100304.72;4608935;28;20191;-57
2021/12/02 10:28:02;;;;;;;2.78;1.38;;;;;;;2.35;100.00;100303.66;4524457;28;20038;-59
2021/12/02 10:30:28;;;;;;;3.40;0.82;;;;;;;2.30;100.00;100306.19;4572455;28;22000;-60
2021/12/02 10:32:53;;;;;;;3.33;0.98;;;;;;;2.32;100.00;100321.66;4581957;28;20141;-60
2021/12/02 10:35:21;;;;;;;1.27;0.65;;;;;;;2.33;100.00;100320.81;4678930;28;20931;-60
2021/12/02 10:37:46;;;;;;;4.22;1.08;;;;;;;2.24;100.00;100289.72;4597807;28;20690;-59
2021/12/02 10:40:20;;;;;;;3.67;1.10;;;;;;;2.47;100.00;100301.28;4475521;28;20096;-60
2021/12/02 10:42:46;;;;;;;3.03;1.25;;;;;;;2.54;100.00;100305.69;4477621;28;20067;-60
2021/12/02 10:45:32;;;;;;;1.25;0.60;;;;;;;2.69;100.00;100300.75;4550788;28;20304;-59
2021/12/02 10:47:58;;;;;;;1.95;0.82;;;;;;;2.88;100.00;100298.44;4468062;28;20139;-60
2021/12/02 10:50:25;;;;;;;3.85;0.80;;;;;;;2.96;100.00;100308.03;4409832;28;22529;-61
2021/12/02 10:52:51;;;;;;;2.10;1.00;;;;;;;3.08;100.00;100299.56;4500739;28;20089;-60
2021/12/02 10:55:23;;;;;;;8.38;1.35;;;;;;;3.32;100.00;100310.22;4514565;28;20823;-60
2021/12/02 10:57:52;;;;;;;1.60;0.70;;;;;;;3.49;100.00;100319.03;4461501;28;21112;-62
2021/12/02 11:00:25;;;;;;;0.68;0.63;;;;;;;3.66;100.00;100317.50;4496586;28;20650;-60
2021/12/02 11:02:53;;;;;;;5.88;1.17;;;;;;;3.90;100.00;100316.03;4480408;28;22246;-59
2021/12/02 11:05:26;;;;;;;2.25;0.80;;;;;;;4.19;100.00;100315.47;4538755;28;20060;-61
2021/12/02 11:07:55;;;;;;;7.75;1.13;;;;;;;4.46;100.00;100322.56;4560434;28;20053;-59
2021/12/02 11:10:22;;;;;;;2.42;1.20;;;;;;;4.74;100.00;100321.94;4424530;28;20143;-59
2021/12/02 11:12:50;;;;;;;1.23;1.00;;;;;;;5.16;100.00;100320.47;4533063;28;20034;-60
2021/12/02 11:15:16;;;;;;;2.67;1.10;;;;;;;5.66;100.00;100329.31;4704246;28;20029;-60
2021/12/02 11:17:51;;;;;;;1.33;0.82;;;;;;;6.30;100.00;100329.47;4704575;28;21354;-59
2021/12/02 11:20:23;;;;;;;1.73;1.00;;;;;;;6.85;100.00;100313.88;4702942;28;20037;-61
2021/12/02 11:22:53;;;;;;;1.35;0.73;;;;;;;6.77;100.00;100332.06;4711080;28;21135;-60
2021/12/02 11:25:19;;;;;;;5.35;0.80;;;;;;;6.24;100.00;100329.47;4705722;28;20941;-60
2021/12/02 11:27:49;;;;;;;7.68;0.70;;;;;;;5.86;100.00;100341.47;4746301;28;25879;-61
2021/12/02 11:30:19;;;;;;;1.00;0.50;;;;;;;5.54;100.00;100324.06;4727364;28;20034;-60
2021/12/02 11:32:50;;;;;;;1.38;0.60;;;;;;;5.41;100.00;100337.00;4729666;28;20046;-60
2021/12/02 11:35:20;;;;;;;;;;;;;;;5.78;100.00;100332.78;4693544;28;20918;-60
2021/12/02 11:37:56;;;;;;;2.33;1.05;;;;;;;6.74;100.00;100331.19;4585203;28;22829;-60
2021/12/02 11:40:25;;;;;;;0.90;0.47;;;;;;;8.39;100.00;100336.59;4534134;28;20038;-60
2021/12/02 11:42:51;;;;;;;1.50;0.80;;;;;;;9.43;100.00;100334.69;4563155;28;20049;-60
2021/12/02 11:45:19;;;;;;;3.05;0.52;;;;;;;8.90;100.00;100358.75;4588799;28;22482;-60
2021/12/02 11:47:48;;;;;;;2.17;0.80;;;;;;;7.42;100.00;100377.81;4620331;28;21125;-61
2021/12/02 11:50:15;;;;;;;4.22;0.68;;;;;;;6.36;100.00;100390.91;4604520;28;24741;-60
2021/12/02 11:52:41;;;;;;;2.25;0.63;;;;;;;5.50;100.00;100431.16;4647927;28;20131;-61
2021/12/02 11:55:26;;;;;;;0.52;0.35;;;;;;;4.21;100.00;100444.78;4611296;28;20602;-59
2021/12/02 11:57:52;;;;;;;0.75;0.25;;;;;;;3.33;100.00;100428.16;4608750;28;20174;-59
2021/12/02 12:00:21;;;;;;;0.08;0.08;;;;;;;2.62;100.00;100425.31;4694973;28;20042;-60